首页
METAR-TAF:

METAR-TAF

机场 :

Ludington, 密歇根州, 美国

纬度: 43-58N, 经度: 086-24W, 海拔: 197米

当前天气观测

该预报发布于11分钟前的13:15 UTC
风速8节,风向东转东南
温度 -7°C
湿度 73%
气压 1022 hPa
能見度: 16.1公里
阴天层高于10000英尺

METAR: KLDM 171315Z AUTO 11008KT 10SM OVC100 M07/M11 A3018 RMK AO2 T10711106

时间: 08:26 (13:26 UTC)


TAF: 丢失

超过4000个机场的气象观测和天气预报(METAR&TAF报告)。

可查询的气象台以黄色和红色小点在地图上表示。

将鼠标移到小点上方,可查看气象台名称。

然后点击查看天气观测和预报。

如需切换地图:点击带黑十字的绿色按钮放大地图;点击带横线的绿色按钮缩小地图;或者点击绿色箭头查看邻近地区的地图。


METAR-TAF: